JST203 YSSY-NZAA
Flight info
| Callsign | JST203 |
|---|---|
| Flight time | 2h 27m |
| Altitude | 33000 |
| Route | TESAT L521 LUNBI |
| Aircraft | A21N/M-SADE3FGHIJ3J4J5M1RWYZ/LB1D1 |
Departure
| Time | 2026-05-08 00:20 |
|---|---|
| Airport | Sydney Kingsford Smith International Airport (YSSY) |
Arrival
| Time | 2026-05-08 02:47 |
|---|---|
| Airport | Auckland International Airport (NZAA) |
| Time | Latitude | Longitude | Altitude | Speed | Heading |
|---|---|---|---|---|---|
| 2026-05-07 23:35 | -33.93948 | 151.16905 | 29 ft | 0 kts | 74° |
| 2026-05-08 00:00 | -33.93948 | 151.16904 | 30 ft | 2 kts | 74° |
| 2026-05-08 00:00 | -33.93953 | 151.16882 | 30 ft | 3 kts | 74° |
| 2026-05-08 00:00 | -33.93959 | 151.16861 | 30 ft | 3 kts | 74° |
| 2026-05-08 00:01 | -33.93964 | 151.16839 | 30 ft | 3 kts | 74° |
| 2026-05-08 00:01 | -33.93966 | 151.16816 | 30 ft | 3 kts | 103° |
| 2026-05-08 00:01 | -33.93959 | 151.16794 | 30 ft | 3 kts | 133° |
| 2026-05-08 00:01 | -33.93949 | 151.16783 | 30 ft | 0 kts | 142° |
| 2026-05-08 00:05 | -33.93950 | 151.16783 | 30 ft | 1 kts | 142° |
| 2026-05-08 00:05 | -33.93963 | 151.16789 | 30 ft | 4 kts | 162° |
| 2026-05-08 00:05 | -33.93990 | 151.16799 | 30 ft | 6 kts | 164° |
| 2026-05-08 00:05 | -33.94039 | 151.16819 | 30 ft | 9 kts | 148° |
| 2026-05-08 00:06 | -33.94050 | 151.16889 | 30 ft | 10 kts | 77° |
| 2026-05-08 00:06 | -33.94032 | 151.16971 | 30 ft | 11 kts | 74° |
| 2026-05-08 00:06 | -33.94009 | 151.17067 | 30 ft | 12 kts | 72° |
| 2026-05-08 00:06 | -33.93984 | 151.17170 | 29 ft | 13 kts | 74° |
| 2026-05-08 00:07 | -33.93958 | 151.17280 | 28 ft | 14 kts | 74° |
| 2026-05-08 00:07 | -33.93928 | 151.17405 | 26 ft | 16 kts | 73° |
| 2026-05-08 00:07 | -33.93898 | 151.17532 | 28 ft | 15 kts | 74° |
| 2026-05-08 00:07 | -33.93870 | 151.17653 | 29 ft | 15 kts | 74° |
| 2026-05-08 00:08 | -33.93856 | 151.17746 | 30 ft | 10 kts | 108° |
| 2026-05-08 00:08 | -33.93915 | 151.17783 | 29 ft | 5 kts | 167° |
| 2026-05-08 00:08 | -33.93925 | 151.17786 | 29 ft | 0 kts | 167° |
| 2026-05-08 00:09 | -33.93926 | 151.17786 | 29 ft | 2 kts | 167° |
| 2026-05-08 00:09 | -33.93962 | 151.17796 | 29 ft | 9 kts | 167° |
| 2026-05-08 00:09 | -33.94052 | 151.17820 | 28 ft | 17 kts | 167° |
| 2026-05-08 00:10 | -33.94174 | 151.17851 | 30 ft | 18 kts | 168° |
| 2026-05-08 00:10 | -33.94296 | 151.17882 | 30 ft | 18 kts | 168° |
| 2026-05-08 00:10 | -33.94413 | 151.17912 | 30 ft | 13 kts | 170° |
| 2026-05-08 00:10 | -33.94497 | 151.17883 | 30 ft | 13 kts | 192° |
| 2026-05-08 00:11 | -33.94588 | 151.17899 | 30 ft | 14 kts | 168° |
| 2026-05-08 00:11 | -33.94690 | 151.17925 | 30 ft | 16 kts | 168° |
| 2026-05-08 00:11 | -33.94804 | 151.17955 | 30 ft | 18 kts | 167° |
| 2026-05-08 00:11 | -33.94924 | 151.17986 | 30 ft | 18 kts | 168° |
| 2026-05-08 00:12 | -33.95033 | 151.18013 | 30 ft | 12 kts | 167° |
| 2026-05-08 00:12 | -33.95099 | 151.18069 | 30 ft | 12 kts | 108° |
| 2026-05-08 00:12 | -33.95088 | 151.18171 | 30 ft | 13 kts | 78° |
| 2026-05-08 00:12 | -33.95068 | 151.18279 | 30 ft | 13 kts | 77° |
| 2026-05-08 00:13 | -33.95051 | 151.18377 | 30 ft | 8 kts | 78° |
| 2026-05-08 00:13 | -33.95045 | 151.18407 | 30 ft | 0 kts | 78° |
| 2026-05-08 00:14 | -33.95044 | 151.18413 | 30 ft | 3 kts | 78° |
| 2026-05-08 00:14 | -33.95043 | 151.18469 | 30 ft | 10 kts | 105° |
| 2026-05-08 00:14 | -33.95114 | 151.18543 | 30 ft | 16 kts | 140° |
| 2026-05-08 00:15 | -33.95199 | 151.18636 | 30 ft | 17 kts | 137° |
| 2026-05-08 00:15 | -33.95300 | 151.18711 | 30 ft | 18 kts | 159° |
| 2026-05-08 00:15 | -33.95428 | 151.18748 | 30 ft | 20 kts | 167° |
| 2026-05-08 00:15 | -33.95569 | 151.18785 | 30 ft | 21 kts | 168° |
| 2026-05-08 00:16 | -33.95720 | 151.18824 | 30 ft | 23 kts | 168° |
| 2026-05-08 00:16 | -33.95880 | 151.18866 | 30 ft | 24 kts | 167° |
| 2026-05-08 00:16 | -33.96047 | 151.18910 | 30 ft | 25 kts | 168° |
| 2026-05-08 00:16 | -33.96215 | 151.18954 | 30 ft | 25 kts | 167° |
| 2026-05-08 00:17 | -33.96383 | 151.18996 | 30 ft | 25 kts | 167° |
| 2026-05-08 00:17 | -33.96551 | 151.19040 | 30 ft | 25 kts | 167° |
| 2026-05-08 00:17 | -33.96696 | 151.19076 | 30 ft | 18 kts | 175° |
| 2026-05-08 00:17 | -33.96819 | 151.19066 | 30 ft | 18 kts | 173° |
| 2026-05-08 00:18 | -33.96944 | 151.19096 | 30 ft | 18 kts | 167° |
| 2026-05-08 00:18 | -33.97059 | 151.19126 | 30 ft | 11 kts | 168° |
| 2026-05-08 00:18 | -33.97121 | 151.19168 | 30 ft | 11 kts | 116° |
| 2026-05-08 00:18 | -33.97114 | 151.19260 | 29 ft | 10 kts | 76° |
| 2026-05-08 00:19 | -33.97097 | 151.19349 | 25 ft | 6 kts | 78° |
| 2026-05-08 00:19 | -33.97082 | 151.19377 | 28 ft | 4 kts | 20° |
| 2026-05-08 00:19 | -33.97066 | 151.19374 | 29 ft | 0 kts | 349° |
| 2026-05-08 00:19 | -33.97059 | 151.19372 | 25 ft | 9 kts | 349° |
| 2026-05-08 00:20 | -33.96724 | 151.19286 | 23 ft | 87 kts | 348° |
| 2026-05-08 00:20 | -33.95920 | 151.19076 | 28 ft | 147 kts | 347° |
| 2026-05-08 00:20 | -33.94773 | 151.18783 | 249 ft | 180 kts | 341° |
| 2026-05-08 00:20 | -33.93507 | 151.18553 | 944 ft | 190 kts | 358° |
| 2026-05-08 00:21 | -33.92253 | 151.19127 | 1533 ft | 202 kts | 32° |
| 2026-05-08 00:21 | -33.91448 | 151.20545 | 1957 ft | 215 kts | 75° |
| 2026-05-08 00:21 | -33.91509 | 151.22304 | 2422 ft | 208 kts | 117° |
| 2026-05-08 00:21 | -33.92121 | 151.23842 | 3026 ft | 201 kts | 124° |
| 2026-05-08 00:22 | -33.92756 | 151.25308 | 3665 ft | 194 kts | 127° |
| 2026-05-08 00:22 | -33.93391 | 151.26715 | 4295 ft | 190 kts | 126° |
| 2026-05-08 00:22 | -33.93768 | 151.28290 | 4591 ft | 213 kts | 101° |
| 2026-05-08 00:22 | -33.93742 | 151.30177 | 4719 ft | 236 kts | 94° |
| 2026-05-08 00:23 | -33.93678 | 151.32269 | 4829 ft | 259 kts | 94° |
| 2026-05-08 00:23 | -33.93609 | 151.34492 | 5100 ft | 277 kts | 93° |
| 2026-05-08 00:23 | -33.93531 | 151.36837 | 5694 ft | 283 kts | 93° |
| 2026-05-08 00:23 | -33.93450 | 151.39219 | 6360 ft | 286 kts | 92° |
| 2026-05-08 00:24 | -33.93368 | 151.41626 | 6994 ft | 290 kts | 93° |
| 2026-05-08 00:24 | -33.93291 | 151.44073 | 7576 ft | 295 kts | 92° |
| 2026-05-08 00:24 | -33.93219 | 151.46564 | 8178 ft | 300 kts | 92° |
| 2026-05-08 00:24 | -33.93235 | 151.49083 | 8753 ft | 301 kts | 105° |
| 2026-05-08 00:25 | -33.94060 | 151.51314 | 9300 ft | 289 kts | 135° |
| 2026-05-08 00:25 | -33.95338 | 151.53198 | 9887 ft | 295 kts | 131° |
| 2026-05-08 00:25 | -33.96490 | 151.55311 | 10253 ft | 311 kts | 129° |
| 2026-05-08 00:25 | -33.97687 | 151.57584 | 10376 ft | 332 kts | 128° |
| 2026-05-08 00:26 | -33.98930 | 151.60022 | 10504 ft | 352 kts | 127° |
| 2026-05-08 00:26 | -34.00218 | 151.62632 | 10633 ft | 371 kts | 126° |
| 2026-05-08 00:26 | -34.01528 | 151.65353 | 11024 ft | 379 kts | 125° |
| 2026-05-08 00:26 | -34.02843 | 151.68127 | 11565 ft | 383 kts | 125° |
| 2026-05-08 00:27 | -34.04169 | 151.70932 | 12125 ft | 387 kts | 126° |
| 2026-05-08 00:27 | -34.05510 | 151.73765 | 12684 ft | 391 kts | 126° |
| 2026-05-08 00:27 | -34.06870 | 151.76619 | 13250 ft | 394 kts | 126° |
| 2026-05-08 00:27 | -34.08227 | 151.79459 | 13804 ft | 398 kts | 127° |
| 2026-05-08 00:28 | -34.09616 | 151.82361 | 14320 ft | 401 kts | 127° |
| 2026-05-08 00:28 | -34.11017 | 151.85286 | 14833 ft | 404 kts | 127° |
| 2026-05-08 00:28 | -34.12430 | 151.88238 | 15352 ft | 407 kts | 127° |
| 2026-05-08 00:28 | -34.13852 | 151.91209 | 15871 ft | 411 kts | 127° |
| 2026-05-08 00:29 | -34.15282 | 151.94205 | 16388 ft | 414 kts | 128° |
| 2026-05-08 00:29 | -34.16727 | 151.97235 | 16897 ft | 417 kts | 128° |
| 2026-05-08 00:29 | -34.18182 | 152.00282 | 17383 ft | 421 kts | 128° |
| 2026-05-08 00:29 | -34.19576 | 152.03419 | 17882 ft | 431 kts | 121° |
| 2026-05-08 00:30 | -34.20638 | 152.06852 | 18373 ft | 439 kts | 117° |
| 2026-05-08 00:30 | -34.21648 | 152.10345 | 18793 ft | 442 kts | 117° |
| 2026-05-08 00:30 | -34.22662 | 152.13862 | 19214 ft | 445 kts | 117° |
| 2026-05-08 00:30 | -34.23687 | 152.17403 | 19641 ft | 448 kts | 117° |
| 2026-05-08 00:31 | -34.24722 | 152.20963 | 20064 ft | 450 kts | 117° |
| 2026-05-08 00:31 | -34.25765 | 152.24543 | 20478 ft | 453 kts | 117° |
| 2026-05-08 00:31 | -34.26811 | 152.28143 | 20886 ft | 455 kts | 117° |
| 2026-05-08 00:31 | -34.27861 | 152.31766 | 21282 ft | 458 kts | 117° |
| 2026-05-08 00:32 | -34.28914 | 152.35413 | 21687 ft | 461 kts | 117° |
| 2026-05-08 00:32 | -34.29972 | 152.39083 | 22079 ft | 463 kts | 117° |
| 2026-05-08 00:32 | -34.31020 | 152.42722 | 22460 ft | 466 kts | 117° |
| 2026-05-08 00:32 | -34.32089 | 152.46431 | 22838 ft | 468 kts | 117° |
| 2026-05-08 00:33 | -34.33163 | 152.50162 | 23215 ft | 471 kts | 117° |
| 2026-05-08 00:33 | -34.34241 | 152.53915 | 23579 ft | 474 kts | 117° |
| 2026-05-08 00:33 | -34.35323 | 152.57687 | 23886 ft | 476 kts | 116° |
| 2026-05-08 00:33 | -34.36410 | 152.61483 | 24192 ft | 479 kts | 116° |
| 2026-05-08 00:34 | -34.37505 | 152.65301 | 24489 ft | 481 kts | 116° |
| 2026-05-08 00:34 | -34.38606 | 152.69142 | 24775 ft | 484 kts | 116° |
| 2026-05-08 00:34 | -34.39711 | 152.73002 | 25056 ft | 487 kts | 116° |
| 2026-05-08 00:34 | -34.40819 | 152.76884 | 25348 ft | 489 kts | 116° |
| 2026-05-08 00:35 | -34.41930 | 152.80790 | 25612 ft | 492 kts | 116° |
| 2026-05-08 00:35 | -34.43043 | 152.84719 | 25879 ft | 495 kts | 115° |
| 2026-05-08 00:35 | -34.44161 | 152.88673 | 26145 ft | 497 kts | 115° |
| 2026-05-08 00:35 | -34.45283 | 152.92640 | 26404 ft | 500 kts | 115° |
| 2026-05-08 00:36 | -34.46413 | 152.96633 | 26662 ft | 502 kts | 115° |
| 2026-05-08 00:36 | -34.47546 | 153.00641 | 26920 ft | 504 kts | 115° |
| 2026-05-08 00:36 | -34.48687 | 153.04677 | 27172 ft | 507 kts | 115° |
| 2026-05-08 00:36 | -34.49833 | 153.08728 | 27436 ft | 510 kts | 115° |
| 2026-05-08 00:37 | -34.50982 | 153.12803 | 27698 ft | 512 kts | 114° |
| 2026-05-08 00:37 | -34.52130 | 153.16897 | 28006 ft | 513 kts | 114° |
| 2026-05-08 00:37 | -34.53259 | 153.20941 | 28380 ft | 513 kts | 114° |
| 2026-05-08 00:38 | -34.55546 | 153.29126 | 29097 ft | 513 kts | 114° |
| 2026-05-08 00:38 | -34.56691 | 153.33226 | 29444 ft | 513 kts | 114° |
| 2026-05-08 00:38 | -34.57836 | 153.37324 | 29806 ft | 513 kts | 114° |
| 2026-05-08 00:38 | -34.58986 | 153.41425 | 30138 ft | 513 kts | 114° |
| 2026-05-08 00:39 | -34.60130 | 153.45520 | 30425 ft | 513 kts | 114° |
| 2026-05-08 00:39 | -34.61271 | 153.49629 | 30701 ft | 513 kts | 114° |
| 2026-05-08 00:39 | -34.62405 | 153.53738 | 30984 ft | 514 kts | 113° |
| 2026-05-08 00:39 | -34.63537 | 153.57848 | 31260 ft | 514 kts | 113° |
| 2026-05-08 00:40 | -34.64670 | 153.61964 | 31535 ft | 514 kts | 113° |
| 2026-05-08 00:40 | -34.65805 | 153.66085 | 31788 ft | 514 kts | 113° |
| 2026-05-08 00:40 | -34.66942 | 153.70209 | 32036 ft | 515 kts | 113° |
| 2026-05-08 00:40 | -34.68076 | 153.74333 | 32296 ft | 515 kts | 113° |
| 2026-05-08 00:41 | -34.69214 | 153.78467 | 32541 ft | 516 kts | 113° |
| 2026-05-08 00:41 | -34.70353 | 153.82604 | 32786 ft | 517 kts | 113° |
| 2026-05-08 00:41 | -34.71494 | 153.86752 | 32962 ft | 518 kts | 113° |
| 2026-05-08 00:42 | -34.73770 | 153.95064 | 32997 ft | 519 kts | 112° |
| 2026-05-08 00:42 | -34.76019 | 154.03343 | 32992 ft | 519 kts | 112° |
| 2026-05-08 00:43 | -34.78291 | 154.11691 | 32992 ft | 520 kts | 112° |
| 2026-05-08 00:43 | -34.80558 | 154.20048 | 32989 ft | 521 kts | 112° |
| 2026-05-08 00:44 | -34.82822 | 154.28431 | 32993 ft | 521 kts | 112° |
| 2026-05-08 00:44 | -34.85087 | 154.36821 | 32996 ft | 522 kts | 112° |
| 2026-05-08 00:45 | -34.87341 | 154.45244 | 32996 ft | 523 kts | 112° |
| 2026-05-08 00:45 | -34.89593 | 154.53678 | 32995 ft | 524 kts | 112° |
| 2026-05-08 00:46 | -34.91829 | 154.62073 | 32990 ft | 525 kts | 112° |
| 2026-05-08 00:46 | -34.94088 | 154.70537 | 32987 ft | 526 kts | 112° |
| 2026-05-08 00:47 | -34.96341 | 154.79019 | 32981 ft | 526 kts | 112° |
| 2026-05-08 00:47 | -34.98580 | 154.87523 | 32979 ft | 527 kts | 111° |
| 2026-05-08 00:48 | -35.00816 | 154.96039 | 32979 ft | 527 kts | 111° |
| 2026-05-08 00:48 | -35.03055 | 155.04563 | 32969 ft | 528 kts | 111° |
| 2026-05-08 00:49 | -35.05296 | 155.13097 | 32969 ft | 528 kts | 111° |
| 2026-05-08 00:49 | -35.07510 | 155.21592 | 32952 ft | 529 kts | 111° |
| 2026-05-08 00:50 | -35.09732 | 155.30149 | 32951 ft | 529 kts | 111° |
| 2026-05-08 00:50 | -35.11948 | 155.38712 | 32944 ft | 529 kts | 111° |
| 2026-05-08 00:51 | -35.14155 | 155.47287 | 32943 ft | 529 kts | 111° |
| 2026-05-08 00:51 | -35.16364 | 155.55873 | 32941 ft | 530 kts | 111° |
| 2026-05-08 00:52 | -35.18575 | 155.64460 | 32936 ft | 530 kts | 111° |
| 2026-05-08 00:52 | -35.20777 | 155.73053 | 32926 ft | 530 kts | 110° |
| 2026-05-08 00:53 | -35.22596 | 155.80211 | 32923 ft | 530 kts | 110° |
| 2026-05-08 00:53 | -35.24781 | 155.88824 | 32924 ft | 531 kts | 110° |
| 2026-05-08 00:54 | -35.26967 | 155.97452 | 32919 ft | 531 kts | 110° |
| 2026-05-08 00:54 | -35.29149 | 156.06079 | 32913 ft | 531 kts | 110° |
| 2026-05-08 00:55 | -35.31319 | 156.14710 | 32907 ft | 530 kts | 110° |
| 2026-05-08 00:55 | -35.33487 | 156.23342 | 32906 ft | 531 kts | 110° |
| 2026-05-08 00:56 | -35.35641 | 156.31990 | 32898 ft | 531 kts | 110° |
| 2026-05-08 00:56 | -35.37787 | 156.40637 | 32895 ft | 531 kts | 109° |
| 2026-05-08 00:57 | -35.39920 | 156.49237 | 32897 ft | 531 kts | 109° |
| 2026-05-08 00:57 | -35.42065 | 156.57895 | 32891 ft | 531 kts | 109° |
| 2026-05-08 00:58 | -35.44205 | 156.66561 | 32890 ft | 531 kts | 109° |
| 2026-05-08 00:58 | -35.46339 | 156.75236 | 32879 ft | 531 kts | 109° |
| 2026-05-08 00:59 | -35.48463 | 156.83921 | 32877 ft | 532 kts | 109° |
| 2026-05-08 00:59 | -35.50588 | 156.92615 | 32871 ft | 532 kts | 109° |
| 2026-05-08 01:00 | -35.52699 | 157.01314 | 32873 ft | 532 kts | 109° |
| 2026-05-08 01:00 | -35.54803 | 157.10035 | 32877 ft | 533 kts | 109° |
| 2026-05-08 01:01 | -35.56907 | 157.18757 | 32876 ft | 533 kts | 109° |
| 2026-05-08 01:01 | -35.59012 | 157.27480 | 32867 ft | 533 kts | 108° |
| 2026-05-08 01:02 | -35.61110 | 157.36218 | 32877 ft | 533 kts | 108° |
| 2026-05-08 01:02 | -35.63188 | 157.44961 | 32870 ft | 533 kts | 108° |
| 2026-05-08 01:03 | -35.65264 | 157.53642 | 32865 ft | 533 kts | 108° |
| 2026-05-08 01:03 | -35.67346 | 157.62397 | 32847 ft | 533 kts | 108° |
| 2026-05-08 01:04 | -35.69412 | 157.71169 | 32851 ft | 534 kts | 108° |
| 2026-05-08 01:04 | -35.71476 | 157.79947 | 32855 ft | 534 kts | 108° |
| 2026-05-08 01:05 | -35.73542 | 157.88729 | 32853 ft | 535 kts | 108° |
| 2026-05-08 01:05 | -35.75599 | 157.97527 | 32858 ft | 535 kts | 108° |
| 2026-05-08 01:06 | -35.77644 | 158.06330 | 32861 ft | 535 kts | 107° |
| 2026-05-08 01:06 | -35.79468 | 158.15150 | 32862 ft | 535 kts | 103° |
| 2026-05-08 01:07 | -35.80957 | 158.24146 | 32858 ft | 536 kts | 101° |
| 2026-05-08 01:07 | -35.82364 | 158.33159 | 32850 ft | 536 kts | 102° |
| 2026-05-08 01:08 | -35.83851 | 158.42170 | 32853 ft | 536 kts | 102° |
| 2026-05-08 01:08 | -35.85411 | 158.51159 | 32850 ft | 536 kts | 102° |
| 2026-05-08 01:09 | -35.86959 | 158.60152 | 32846 ft | 536 kts | 102° |
| 2026-05-08 01:09 | -35.88473 | 158.69160 | 32847 ft | 536 kts | 102° |
| 2026-05-08 01:10 | -35.89954 | 158.78105 | 32840 ft | 536 kts | 101° |
| 2026-05-08 01:10 | -35.91445 | 158.87120 | 32842 ft | 536 kts | 101° |
| 2026-05-08 01:11 | -35.92940 | 158.96127 | 32837 ft | 536 kts | 101° |
| 2026-05-08 01:11 | -35.94429 | 159.05143 | 32831 ft | 536 kts | 101° |
| 2026-05-08 01:12 | -35.95910 | 159.14159 | 32830 ft | 536 kts | 101° |
| 2026-05-08 01:12 | -35.97381 | 159.23184 | 32825 ft | 536 kts | 101° |
| 2026-05-08 01:13 | -35.98844 | 159.32211 | 32819 ft | 536 kts | 101° |
| 2026-05-08 01:13 | -36.00306 | 159.41245 | 32811 ft | 537 kts | 101° |
| 2026-05-08 01:14 | -36.01759 | 159.50291 | 32809 ft | 537 kts | 100° |
| 2026-05-08 01:14 | -36.03191 | 159.59295 | 32796 ft | 538 kts | 100° |
| 2026-05-08 01:15 | -36.04627 | 159.68369 | 32786 ft | 539 kts | 100° |
| 2026-05-08 01:15 | -36.06065 | 159.77461 | 32783 ft | 539 kts | 100° |
| 2026-05-08 01:16 | -36.07505 | 159.86562 | 32781 ft | 540 kts | 100° |
| 2026-05-08 01:16 | -36.08944 | 159.95684 | 32772 ft | 541 kts | 99° |
| 2026-05-08 01:17 | -36.10368 | 160.04839 | 32773 ft | 542 kts | 99° |
| 2026-05-08 01:17 | -36.11777 | 160.14006 | 32767 ft | 543 kts | 99° |
| 2026-05-08 01:18 | -36.13196 | 160.23193 | 32760 ft | 544 kts | 99° |
| 2026-05-08 01:18 | -36.14609 | 160.32397 | 32768 ft | 545 kts | 99° |
| 2026-05-08 01:19 | -36.16006 | 160.41545 | 32767 ft | 545 kts | 99° |
| 2026-05-08 01:19 | -36.17405 | 160.50768 | 32770 ft | 546 kts | 99° |
| 2026-05-08 01:20 | -36.18800 | 160.60004 | 32762 ft | 546 kts | 99° |
| 2026-05-08 01:20 | -36.20195 | 160.69253 | 32759 ft | 547 kts | 99° |
| 2026-05-08 01:21 | -36.21578 | 160.78503 | 32749 ft | 547 kts | 98° |
| 2026-05-08 01:21 | -36.22949 | 160.87774 | 32749 ft | 547 kts | 98° |
| 2026-05-08 01:22 | -36.24311 | 160.97044 | 32749 ft | 547 kts | 98° |
| 2026-05-08 01:22 | -36.25670 | 161.06319 | 32750 ft | 547 kts | 98° |
| 2026-05-08 01:23 | -36.27016 | 161.15547 | 32742 ft | 548 kts | 98° |
| 2026-05-08 01:23 | -36.28373 | 161.24842 | 32746 ft | 549 kts | 98° |
| 2026-05-08 01:24 | -36.29714 | 161.34154 | 32747 ft | 549 kts | 98° |
| 2026-05-08 01:24 | -36.31038 | 161.43468 | 32748 ft | 549 kts | 98° |
| 2026-05-08 01:25 | -36.32362 | 161.52785 | 32743 ft | 548 kts | 97° |
| 2026-05-08 01:25 | -36.33686 | 161.62096 | 32736 ft | 548 kts | 97° |
| 2026-05-08 01:26 | -36.34997 | 161.71400 | 32730 ft | 548 kts | 97° |
| 2026-05-08 01:26 | -36.36307 | 161.80711 | 32728 ft | 548 kts | 97° |
| 2026-05-08 01:27 | -36.37597 | 161.89960 | 32726 ft | 548 kts | 97° |
| 2026-05-08 01:27 | -36.38890 | 161.99267 | 32722 ft | 548 kts | 97° |
| 2026-05-08 01:28 | -36.40175 | 162.08593 | 32720 ft | 548 kts | 97° |
| 2026-05-08 01:28 | -36.41448 | 162.17911 | 32718 ft | 548 kts | 97° |
| 2026-05-08 01:29 | -36.42717 | 162.27236 | 32715 ft | 548 kts | 96° |
| 2026-05-08 01:29 | -36.43978 | 162.36555 | 32709 ft | 547 kts | 96° |
| 2026-05-08 01:30 | -36.45222 | 162.45817 | 32704 ft | 547 kts | 96° |
| 2026-05-08 01:30 | -36.46470 | 162.55136 | 32699 ft | 547 kts | 96° |
| 2026-05-08 01:31 | -36.47701 | 162.64462 | 32689 ft | 547 kts | 96° |
| 2026-05-08 01:31 | -36.48931 | 162.73786 | 32685 ft | 547 kts | 96° |
| 2026-05-08 01:32 | -36.50154 | 162.83122 | 32679 ft | 547 kts | 96° |
| 2026-05-08 01:32 | -36.51371 | 162.92455 | 32677 ft | 547 kts | 95° |
| 2026-05-08 01:33 | -36.52588 | 163.01794 | 32673 ft | 547 kts | 95° |
| 2026-05-08 01:33 | -36.53802 | 163.11145 | 32673 ft | 547 kts | 95° |
| 2026-05-08 01:34 | -36.54976 | 163.20425 | 32663 ft | 547 kts | 95° |
| 2026-05-08 01:34 | -36.56159 | 163.29769 | 32658 ft | 547 kts | 95° |
| 2026-05-08 01:35 | -36.57331 | 163.39107 | 32652 ft | 546 kts | 95° |
| 2026-05-08 01:35 | -36.58502 | 163.48444 | 32649 ft | 546 kts | 95° |
| 2026-05-08 01:36 | -36.59661 | 163.57782 | 32642 ft | 546 kts | 95° |
| 2026-05-08 01:36 | -36.60816 | 163.67120 | 32640 ft | 546 kts | 95° |
| 2026-05-08 01:37 | -36.61958 | 163.76449 | 32638 ft | 545 kts | 95° |
| 2026-05-08 01:37 | -36.63084 | 163.85719 | 32638 ft | 545 kts | 95° |
| 2026-05-08 01:38 | -36.64220 | 163.95042 | 32631 ft | 544 kts | 95° |
| 2026-05-08 01:38 | -36.65345 | 164.04359 | 32634 ft | 544 kts | 95° |
| 2026-05-08 01:39 | -36.66457 | 164.13681 | 32639 ft | 544 kts | 94° |
| 2026-05-08 01:39 | -36.67553 | 164.22996 | 32633 ft | 543 kts | 94° |
| 2026-05-08 01:40 | -36.68643 | 164.32297 | 32628 ft | 542 kts | 94° |
| 2026-05-08 01:40 | -36.69737 | 164.41589 | 32627 ft | 542 kts | 94° |
| 2026-05-08 01:41 | -36.70815 | 164.50873 | 32624 ft | 541 kts | 94° |
| 2026-05-08 01:41 | -36.71886 | 164.60142 | 32621 ft | 540 kts | 94° |
| 2026-05-08 01:42 | -36.72947 | 164.69344 | 32621 ft | 539 kts | 94° |
| 2026-05-08 01:42 | -36.73998 | 164.78589 | 32617 ft | 538 kts | 94° |
| 2026-05-08 01:43 | -36.75038 | 164.87811 | 32618 ft | 537 kts | 94° |
| 2026-05-08 01:43 | -36.76068 | 164.97021 | 32615 ft | 536 kts | 94° |
| 2026-05-08 01:44 | -36.77093 | 165.06222 | 32614 ft | 535 kts | 94° |
| 2026-05-08 01:44 | -36.78112 | 165.15397 | 32617 ft | 534 kts | 94° |
| 2026-05-08 01:45 | -36.79120 | 165.24562 | 32618 ft | 533 kts | 94° |
| 2026-05-08 01:45 | -36.80114 | 165.33717 | 32624 ft | 532 kts | 94° |
| 2026-05-08 01:46 | -36.81100 | 165.42857 | 32615 ft | 531 kts | 94° |
| 2026-05-08 01:46 | -36.82081 | 165.51925 | 32616 ft | 530 kts | 94° |
| 2026-05-08 01:47 | -36.83058 | 165.61033 | 32616 ft | 529 kts | 93° |
| 2026-05-08 01:47 | -36.84016 | 165.70132 | 32617 ft | 528 kts | 93° |
| 2026-05-08 01:48 | -36.85438 | 165.83762 | 32619 ft | 527 kts | 93° |
| 2026-05-08 01:48 | -36.86379 | 165.92821 | 32622 ft | 526 kts | 93° |
| 2026-05-08 01:49 | -36.87312 | 166.01874 | 32623 ft | 525 kts | 93° |
| 2026-05-08 01:49 | -36.88234 | 166.10905 | 32622 ft | 524 kts | 93° |
| 2026-05-08 01:50 | -36.89151 | 166.19919 | 32621 ft | 523 kts | 93° |
| 2026-05-08 01:50 | -36.90059 | 166.28924 | 32622 ft | 522 kts | 92° |
| 2026-05-08 01:51 | -36.90961 | 166.37909 | 32623 ft | 521 kts | 92° |
| 2026-05-08 01:51 | -36.91850 | 166.46880 | 32629 ft | 520 kts | 92° |
| 2026-05-08 01:52 | -36.92732 | 166.55775 | 32629 ft | 519 kts | 92° |
| 2026-05-08 01:52 | -36.93605 | 166.64717 | 32629 ft | 518 kts | 92° |
| 2026-05-08 01:53 | -36.94471 | 166.73645 | 32626 ft | 517 kts | 92° |
| 2026-05-08 01:53 | -36.95327 | 166.82561 | 32627 ft | 516 kts | 92° |
| 2026-05-08 01:54 | -36.96175 | 166.91463 | 32626 ft | 515 kts | 92° |
| 2026-05-08 01:54 | -36.97014 | 167.00350 | 32629 ft | 514 kts | 92° |
| 2026-05-08 01:55 | -36.97841 | 167.09228 | 32631 ft | 514 kts | 92° |
| 2026-05-08 01:55 | -36.98525 | 167.16598 | 32638 ft | 513 kts | 92° |
| 2026-05-08 01:56 | -36.99349 | 167.25454 | 32637 ft | 512 kts | 92° |
| 2026-05-08 01:56 | -37.00156 | 167.34292 | 32640 ft | 511 kts | 91° |
| 2026-05-08 01:57 | -37.00956 | 167.43114 | 32644 ft | 510 kts | 91° |
| 2026-05-08 01:57 | -37.01756 | 167.51924 | 32649 ft | 509 kts | 91° |
| 2026-05-08 01:58 | -37.02540 | 167.60710 | 32657 ft | 508 kts | 91° |
| 2026-05-08 01:58 | -37.03311 | 167.69479 | 32654 ft | 506 kts | 91° |
| 2026-05-08 01:59 | -37.04070 | 167.78158 | 32654 ft | 505 kts | 91° |
| 2026-05-08 01:59 | -37.04839 | 167.86882 | 32645 ft | 504 kts | 91° |
| 2026-05-08 02:00 | -37.05593 | 167.95585 | 32665 ft | 503 kts | 91° |
| 2026-05-08 02:00 | -37.06330 | 168.04276 | 32667 ft | 501 kts | 90° |
| 2026-05-08 02:01 | -37.07069 | 168.12935 | 32668 ft | 500 kts | 90° |
| 2026-05-08 02:01 | -37.07801 | 168.21574 | 32666 ft | 498 kts | 90° |
| 2026-05-08 02:02 | -37.08522 | 168.30189 | 32668 ft | 497 kts | 90° |
| 2026-05-08 02:02 | -37.09233 | 168.38788 | 32668 ft | 496 kts | 90° |
| 2026-05-08 02:03 | -37.09936 | 168.47370 | 32670 ft | 494 kts | 90° |
| 2026-05-08 02:03 | -37.10631 | 168.55871 | 32670 ft | 493 kts | 90° |
| 2026-05-08 02:04 | -37.11309 | 168.64411 | 32677 ft | 492 kts | 90° |
| 2026-05-08 02:04 | -37.11979 | 168.72941 | 32682 ft | 491 kts | 90° |
| 2026-05-08 02:05 | -37.12653 | 168.81449 | 32685 ft | 490 kts | 90° |
| 2026-05-08 02:05 | -37.13323 | 168.89934 | 32689 ft | 489 kts | 90° |
| 2026-05-08 02:06 | -37.13982 | 168.98403 | 32690 ft | 487 kts | 90° |
| 2026-05-08 02:06 | -37.14636 | 169.06846 | 32690 ft | 486 kts | 90° |
| 2026-05-08 02:07 | -37.15280 | 169.15267 | 32695 ft | 485 kts | 90° |
| 2026-05-08 02:07 | -37.15906 | 169.23668 | 32696 ft | 484 kts | 89° |
| 2026-05-08 02:08 | -37.16518 | 169.31995 | 32697 ft | 482 kts | 89° |
| 2026-05-08 02:08 | -37.17141 | 169.40365 | 32696 ft | 482 kts | 90° |
| 2026-05-08 02:09 | -37.17763 | 169.48717 | 32694 ft | 481 kts | 90° |
| 2026-05-08 02:09 | -37.18376 | 169.57057 | 32695 ft | 480 kts | 89° |
| 2026-05-08 02:10 | -37.18966 | 169.65384 | 32698 ft | 479 kts | 89° |
| 2026-05-08 02:10 | -37.19540 | 169.73700 | 32700 ft | 478 kts | 89° |
| 2026-05-08 02:11 | -37.20124 | 169.82006 | 32703 ft | 478 kts | 89° |
| 2026-05-08 02:11 | -37.20710 | 169.90310 | 32704 ft | 478 kts | 89° |
| 2026-05-08 02:12 | -37.21286 | 169.98606 | 32710 ft | 477 kts | 89° |
| 2026-05-08 02:12 | -37.21852 | 170.06849 | 32697 ft | 477 kts | 88° |
| 2026-05-08 02:13 | -37.22406 | 170.15146 | 32705 ft | 477 kts | 88° |
| 2026-05-08 02:13 | -37.22956 | 170.23448 | 32706 ft | 477 kts | 88° |
| 2026-05-08 02:14 | -37.23515 | 170.31749 | 32702 ft | 477 kts | 88° |
| 2026-05-08 02:14 | -37.24059 | 170.40049 | 32700 ft | 477 kts | 88° |
| 2026-05-08 02:15 | -37.24590 | 170.48355 | 32709 ft | 477 kts | 88° |
| 2026-05-08 02:15 | -37.25122 | 170.56662 | 32715 ft | 478 kts | 88° |
| 2026-05-08 02:16 | -37.25634 | 170.64967 | 32719 ft | 476 kts | 85° |
| 2026-05-08 02:16 | -37.25496 | 170.73158 | 32740 ft | 473 kts | 81° |
| 2026-05-08 02:17 | -37.25260 | 170.81410 | 32738 ft | 472 kts | 81° |
| 2026-05-08 02:17 | -37.25026 | 170.89617 | 32720 ft | 469 kts | 81° |
| 2026-05-08 02:18 | -37.24790 | 170.97800 | 32714 ft | 470 kts | 81° |
| 2026-05-08 02:18 | -37.24550 | 171.06003 | 32723 ft | 471 kts | 81° |
| 2026-05-08 02:19 | -37.24301 | 171.14224 | 32721 ft | 471 kts | 81° |
| 2026-05-08 02:19 | -37.24043 | 171.22435 | 32723 ft | 471 kts | 81° |
| 2026-05-08 02:20 | -37.23790 | 171.30599 | 32738 ft | 472 kts | 81° |
| 2026-05-08 02:20 | -37.23522 | 171.38823 | 32744 ft | 472 kts | 81° |
| 2026-05-08 02:21 | -37.23236 | 171.47050 | 32751 ft | 472 kts | 81° |
| 2026-05-08 02:21 | -37.22948 | 171.55281 | 32760 ft | 473 kts | 81° |
| 2026-05-08 02:22 | -37.22669 | 171.63530 | 32772 ft | 473 kts | 81° |
| 2026-05-08 02:22 | -37.22384 | 171.71771 | 32766 ft | 473 kts | 81° |
| 2026-05-08 02:23 | -37.22085 | 171.80018 | 32772 ft | 474 kts | 80° |
| 2026-05-08 02:23 | -37.21773 | 171.88237 | 32766 ft | 474 kts | 81° |
| 2026-05-08 02:24 | -37.21466 | 171.96500 | 32774 ft | 474 kts | 81° |
| 2026-05-08 02:24 | -37.21160 | 172.04772 | 32784 ft | 475 kts | 81° |
| 2026-05-08 02:25 | -37.20843 | 172.13052 | 32793 ft | 475 kts | 81° |
| 2026-05-08 02:25 | -37.20513 | 172.21335 | 32799 ft | 475 kts | 81° |
| 2026-05-08 02:26 | -37.20174 | 172.29619 | 32807 ft | 476 kts | 81° |
| 2026-05-08 02:26 | -37.19833 | 172.37905 | 32812 ft | 476 kts | 81° |
| 2026-05-08 02:27 | -37.19492 | 172.46193 | 32816 ft | 476 kts | 81° |
| 2026-05-08 02:27 | -37.19143 | 172.54489 | 32815 ft | 477 kts | 81° |
| 2026-05-08 02:28 | -37.18963 | 172.58649 | 32685 ft | 478 kts | 81° |
| 2026-05-08 02:28 | -37.18782 | 172.62817 | 31920 ft | 483 kts | 81° |
| 2026-05-08 02:28 | -37.18597 | 172.67044 | 31054 ft | 488 kts | 81° |
| 2026-05-08 02:28 | -37.18406 | 172.71313 | 30106 ft | 494 kts | 82° |
| 2026-05-08 02:29 | -37.18208 | 172.75642 | 29045 ft | 500 kts | 82° |
| 2026-05-08 02:29 | -37.18011 | 172.80006 | 28066 ft | 503 kts | 82° |
| 2026-05-08 02:29 | -37.17819 | 172.84364 | 27533 ft | 497 kts | 82° |
| 2026-05-08 02:29 | -37.17629 | 172.88684 | 26856 ft | 495 kts | 82° |
| 2026-05-08 02:30 | -37.17435 | 172.92979 | 26201 ft | 492 kts | 82° |
| 2026-05-08 02:30 | -37.17243 | 172.97252 | 25548 ft | 489 kts | 82° |
| 2026-05-08 02:30 | -37.17051 | 173.01495 | 24903 ft | 487 kts | 82° |
| 2026-05-08 02:30 | -37.16857 | 173.05724 | 24261 ft | 485 kts | 82° |
| 2026-05-08 02:31 | -37.16666 | 173.09876 | 23631 ft | 483 kts | 82° |
| 2026-05-08 02:31 | -37.16469 | 173.14069 | 22918 ft | 481 kts | 82° |
| 2026-05-08 02:31 | -37.16269 | 173.18231 | 22305 ft | 476 kts | 82° |
| 2026-05-08 02:31 | -37.16067 | 173.22349 | 21683 ft | 471 kts | 82° |
| 2026-05-08 02:32 | -37.15865 | 173.26429 | 21083 ft | 466 kts | 82° |
| 2026-05-08 02:32 | -37.15666 | 173.30461 | 20504 ft | 462 kts | 82° |
| 2026-05-08 02:32 | -37.15470 | 173.34465 | 19937 ft | 458 kts | 82° |
| 2026-05-08 02:32 | -37.15275 | 173.38437 | 19388 ft | 455 kts | 82° |
| 2026-05-08 02:33 | -37.15078 | 173.42380 | 18847 ft | 452 kts | 82° |
| 2026-05-08 02:33 | -37.14881 | 173.46292 | 18350 ft | 448 kts | 82° |
| 2026-05-08 02:33 | -37.14670 | 173.50174 | 17792 ft | 445 kts | 81° |
| 2026-05-08 02:33 | -37.14441 | 173.54025 | 17283 ft | 441 kts | 81° |
| 2026-05-08 02:34 | -37.14205 | 173.57841 | 16757 ft | 437 kts | 81° |
| 2026-05-08 02:34 | -37.13969 | 173.61624 | 16242 ft | 434 kts | 81° |
| 2026-05-08 02:34 | -37.13743 | 173.65296 | 16066 ft | 409 kts | 80° |
| 2026-05-08 02:34 | -37.13538 | 173.68758 | 15701 ft | 390 kts | 80° |
| 2026-05-08 02:35 | -37.13338 | 173.72071 | 15353 ft | 384 kts | 80° |
| 2026-05-08 02:35 | -37.13130 | 173.75407 | 14877 ft | 385 kts | 80° |
| 2026-05-08 02:35 | -37.12918 | 173.78746 | 14393 ft | 383 kts | 80° |
| 2026-05-08 02:35 | -37.12711 | 173.82053 | 13990 ft | 379 kts | 80° |
| 2026-05-08 02:36 | -37.12506 | 173.85328 | 13388 ft | 375 kts | 80° |
| 2026-05-08 02:36 | -37.12305 | 173.88568 | 12722 ft | 371 kts | 80° |
| 2026-05-08 02:36 | -37.12108 | 173.91775 | 12067 ft | 367 kts | 80° |
| 2026-05-08 02:36 | -37.11912 | 173.94945 | 11401 ft | 363 kts | 79° |
| 2026-05-08 02:37 | -37.11715 | 173.98077 | 10838 ft | 357 kts | 79° |
| 2026-05-08 02:37 | -37.11519 | 174.01159 | 10309 ft | 355 kts | 79° |
| 2026-05-08 02:37 | -37.11327 | 174.04164 | 10084 ft | 334 kts | 79° |
| 2026-05-08 02:37 | -37.11151 | 174.06992 | 9762 ft | 319 kts | 79° |
| 2026-05-08 02:38 | -37.10983 | 174.09688 | 9605 ft | 307 kts | 79° |
| 2026-05-08 02:38 | -37.10809 | 174.12361 | 9475 ft | 305 kts | 78° |
| 2026-05-08 02:38 | -37.10638 | 174.14994 | 9185 ft | 303 kts | 78° |
| 2026-05-08 02:38 | -37.10469 | 174.17609 | 8881 ft | 299 kts | 78° |
| 2026-05-08 02:39 | -37.10302 | 174.20191 | 8579 ft | 296 kts | 78° |
| 2026-05-08 02:39 | -37.10134 | 174.22750 | 8220 ft | 293 kts | 78° |
| 2026-05-08 02:39 | -37.09966 | 174.25280 | 7758 ft | 290 kts | 78° |
| 2026-05-08 02:39 | -37.09799 | 174.27781 | 7327 ft | 286 kts | 78° |
| 2026-05-08 02:40 | -37.09636 | 174.30253 | 6884 ft | 282 kts | 78° |
| 2026-05-08 02:40 | -37.09478 | 174.32680 | 6456 ft | 278 kts | 78° |
| 2026-05-08 02:40 | -37.09319 | 174.35086 | 5980 ft | 275 kts | 78° |
| 2026-05-08 02:40 | -37.09164 | 174.37419 | 5559 ft | 270 kts | 77° |
| 2026-05-08 02:41 | -37.09009 | 174.39730 | 5178 ft | 266 kts | 77° |
| 2026-05-08 02:41 | -37.08850 | 174.42047 | 4805 ft | 266 kts | 77° |
| 2026-05-08 02:41 | -37.08690 | 174.44348 | 4416 ft | 262 kts | 77° |
| 2026-05-08 02:41 | -37.08540 | 174.46579 | 4056 ft | 252 kts | 77° |
| 2026-05-08 02:42 | -37.08400 | 174.48704 | 3961 ft | 238 kts | 76° |
| 2026-05-08 02:42 | -37.08272 | 174.50697 | 3880 ft | 224 kts | 76° |
| 2026-05-08 02:42 | -37.08134 | 174.52621 | 3792 ft | 220 kts | 72° |
| 2026-05-08 02:42 | -37.07816 | 174.54447 | 3699 ft | 209 kts | 64° |
| 2026-05-08 02:43 | -37.07396 | 174.56106 | 3477 ft | 191 kts | 61° |
| 2026-05-08 02:43 | -37.06977 | 174.57641 | 3236 ft | 182 kts | 61° |
| 2026-05-08 02:43 | -37.06575 | 174.59108 | 3001 ft | 174 kts | 60° |
| 2026-05-08 02:43 | -37.06189 | 174.60513 | 2770 ft | 167 kts | 60° |
| 2026-05-08 02:44 | -37.05819 | 174.61861 | 2558 ft | 162 kts | 59° |
| 2026-05-08 02:44 | -37.05453 | 174.63187 | 2344 ft | 161 kts | 60° |
| 2026-05-08 02:44 | -37.05089 | 174.64510 | 2130 ft | 160 kts | 60° |
| 2026-05-08 02:44 | -37.04729 | 174.65821 | 1919 ft | 159 kts | 61° |
| 2026-05-08 02:45 | -37.04373 | 174.67120 | 1709 ft | 154 kts | 62° |
| 2026-05-08 02:45 | -37.04037 | 174.68348 | 1508 ft | 146 kts | 60° |
| 2026-05-08 02:45 | -37.03717 | 174.69510 | 1328 ft | 140 kts | 61° |
| 2026-05-08 02:45 | -37.03403 | 174.70650 | 1132 ft | 138 kts | 62° |
| 2026-05-08 02:46 | -37.03093 | 174.71773 | 945 ft | 136 kts | 62° |
| 2026-05-08 02:46 | -37.02783 | 174.72897 | 758 ft | 136 kts | 63° |
| 2026-05-08 02:46 | -37.02473 | 174.74019 | 576 ft | 137 kts | 64° |
| 2026-05-08 02:46 | -37.02166 | 174.75137 | 401 ft | 137 kts | 64° |
| 2026-05-08 02:47 | -37.01866 | 174.76246 | 208 ft | 135 kts | 64° |
| 2026-05-08 02:47 | -37.01560 | 174.77357 | 34 ft | 133 kts | 64° |
| 2026-05-08 02:47 | -37.01304 | 174.78265 | 26 ft | 86 kts | 71° |
| 2026-05-08 02:47 | -37.01166 | 174.78760 | 28 ft | 39 kts | 68° |
| 2026-05-08 02:48 | -37.01056 | 174.78969 | 25 ft | 17 kts | 43° |
| 2026-05-08 02:48 | -37.00998 | 174.79036 | 25 ft | 10 kts | 41° |
| 2026-05-08 02:48 | -37.00942 | 174.79095 | 27 ft | 11 kts | 38° |
| 2026-05-08 02:48 | -37.00872 | 174.79121 | 25 ft | 11 kts | 352° |
| 2026-05-08 02:49 | -37.00809 | 174.79067 | 26 ft | 12 kts | 287° |
| 2026-05-08 02:49 | -37.00829 | 174.78964 | 25 ft | 13 kts | 251° |
| 2026-05-08 02:49 | -37.00860 | 174.78854 | 25 ft | 14 kts | 250° |
| 2026-05-08 02:49 | -37.00892 | 174.78736 | 25 ft | 15 kts | 251° |
| 2026-05-08 02:50 | -37.00927 | 174.78612 | 26 ft | 14 kts | 251° |
| 2026-05-08 02:50 | -37.00957 | 174.78498 | 28 ft | 14 kts | 250° |
| 2026-05-08 02:50 | -37.00975 | 174.78392 | 26 ft | 12 kts | 284° |
| 2026-05-08 02:50 | -37.00905 | 174.78365 | 27 ft | 12 kts | 6° |
| 2026-05-08 02:51 | -37.00825 | 174.78374 | 27 ft | 12 kts | 5° |
| 2026-05-08 02:51 | -37.00765 | 174.78382 | 26 ft | 7 kts | 12° |
| 2026-05-08 02:51 | -37.00731 | 174.78367 | 28 ft | 6 kts | 299° |
| 2026-05-08 02:51 | -37.00713 | 174.78318 | 27 ft | 2 kts | 295° |
| 2026-05-08 02:52 | -37.00707 | 174.78303 | 27 ft | 1 kts | 295° |
| 2026-05-08 02:52 | -37.00705 | 174.78299 | 26 ft | 0 kts | 295° |